Overview Statistics Trail Chart Weather Telemetry Raw packets
 

This is the latest recevied weather packets stored in our database for station/object K4XP. If no packets are shown the sender has not sent any weather packets the latest 10 day(s).

<< 7 8 9 10 11 12 13 >>
Time Temp. Humidity Pressure Rain* Wind** Luminosity Snow
1788642623 26.11° C 83% 1012.1 hPa 0 mm - - -
1788642330 25.56° C 84% 1012.1 hPa 0 mm - - -
1788642012 25.56° C 83% 1012.1 hPa 0 mm - - -
1788641720 25.56° C 83% 1012 hPa 0 mm - - -
1788641422 25.56° C 83% 1012 hPa 0 mm - - -
1788641112 25.56° C 84% 1012 hPa 0 mm - - -
1788640816 25.56° C 85% 1012.3 hPa 0 mm - - -
1788640525 25.56° C 85% 1012.4 hPa 0.25 mm - - -
1788640229 25.56° C 85% 1012.4 hPa 0.51 mm - - -
1788639917 25.56° C 85% 1012.6 hPa 0.51 mm - - -
1788639618 25.56° C 85% 1012.5 hPa 0.51 mm - - -
1788639328 25.56° C 84% 1012.6 hPa 0.51 mm - - -
1788639011 25.56° C 84% 1012.5 hPa 0.51 mm - - -
1788638719 25.56° C 83% 1011.9 hPa 0.51 mm - - -
1788638430 25.56° C 81% 1011.9 hPa 0.51 mm - - -
1788638130 26.11° C 79% 1011.9 hPa 0.51 mm - - -
1788637812 26.11° C 76% 1011.9 hPa 0.51 mm - - -
1788637521 26.67° C 76% 1011.7 hPa 0.51 mm - - -
1788637229 27.22° C 74% 1012.2 hPa 0.51 mm - - -
1788636914 27.78° C 73% 1012.8 hPa 0.25 mm - - -
1788636624 28.33° C 73% 1013.2 hPa 0 mm - - -
1788636324 28.89° C 69% 1013 hPa 0 mm - - -
1788636014 30° C 66% 1012.9 hPa 0 mm - - -
1788635422 31.67° C 61% 1012.7 hPa 0 mm - - -
1788635141 33.33° C 61% 1012.1 hPa 0 mm - - -

* Rain latest hour (hover to see other rain measurements)
** Current wind speed in m/s (hover to see current wind gust speed)